Strona główna
METAR-TAF:

METAR-TAF

Lotnisko :

Port lotniczy Sarnia

Sarnia, Ontario, Kanada

Szerokość geograficzna: 43-00N, Długość geograficzna: 082-19W, wysokość: 181 m

Aktualna obserwacja pogody

Raport powstał 17 minut temu, godzina 20:00 UTC
Wiatr 13 kt od południe
Temperatura 32°C
Wilgotność 56%
Ciśnienie 1009 hPa
Widzialność: 14.5 km
Rozproszone chmury na wysokości 22000 ft

METAR: CYZR 182000Z AUTO 17013KT 9SM SCT220 32/22 A2981 RMK LTNG DIST S SW PRESFR SLP091 DENSITY ALT 2700FT

czas: 16:17 (20:17 UTC)

Prognoza

Raport powstał 35 minut temu, godzina 19:42 UTC
Prognoza ważna od 18 godzina 20 UTC do 19 godzina 02 UTC
Wiatr 12 kt od południowo-południowy zachód
Widzialność: 10 km
Mało chmury na wysokości 4000 ft
Przerywane chmury na wysokości 24000 ft

TAF: CYZR 181942Z 1820/1902 20012KT P6SM FEW040 BKN240 RMK FCST BASED ON AUTO OBS. NXT FCST WILL BE ISSUED AT 190745Z

Obserwacja i prognoza pogody dla ponad 4000 lotnisk (raport METAR i TAF).

Dostępne stacje oznaczono żółtymi i czerwonymi punktami na mapie.

Najedź kursorem aby zobaczyć nazwę stacji.

Kliknij aby zobaczyć obserwacje i prognozy pogody.

Aby zmienić mapę: kliknij na zielony przycisk z czarnym krzyżykiem, aby powiększyć; na zielony przycisk z myślnikiem, aby pomniejszyć; na zielone strzałki, aby przejść do map sąsiednich.


METAR-TAF: